Time;durP1;ratioP1;P1;durP2;ratioP2;P2;SDS_P1;SDS_P2;PMS_P1;PMS_P2;Temp;Humidity;BMP_temperature;BMP_pressure;BME280_temperature;BME280_humidity;BME280_pressure;Samples;Min_cycle;Max_cycle;Signal;HPM_P1;HPM_P2
2023/04/22 00:01:01;;;;;;;4.43;3.10;;;10.00;88.30;;;;;;5136689;27;20229;-68
2023/04/22 00:03:28;;;;;;;5.85;3.47;;;10.10;88.50;;;;;;5136230;27;20263;-68
2023/04/22 00:05:58;;;;;;;4.85;3.35;;;10.00;88.50;;;;;;5137176;27;20230;-67
2023/04/22 00:08:26;;;;;;;5.40;3.47;;;10.00;88.80;;;;;;5136895;27;20195;-67
2023/04/22 00:10:55;;;;;;;4.55;3.38;;;9.90;90.40;;;;;;5136708;27;20260;-67
2023/04/22 00:13:24;;;;;;;4.45;2.72;;;9.90;90.90;;;;;;5136766;27;20650;-68
2023/04/22 00:15:52;;;;;;;5.47;2.70;;;9.90;90.90;;;;;;5135752;27;20238;-67
2023/04/22 00:18:21;;;;;;;6.03;3.80;;;9.90;91.00;;;;;;5136869;27;20231;-67
2023/04/22 00:20:57;;;;;;;5.90;4.03;;;9.90;90.80;;;;;;5136387;27;20283;-67
2023/04/22 00:23:24;;;;;;;4.72;3.40;;;9.90;90.30;;;;;;5136565;27;20223;-68
2023/04/22 00:25:52;;;;;;;5.03;3.92;;;9.80;90.20;;;;;;5135565;27;20261;-68
2023/04/22 00:28:20;;;;;;;4.90;2.95;;;9.80;90.30;;;;;;5136347;27;20533;-67
2023/04/22 00:30:48;;;;;;;4.78;3.00;;;9.80;90.40;;;;;;5136220;27;20239;-67
2023/04/22 00:33:19;;;;;;;8.52;2.67;;;9.70;90.60;;;;;;5136662;27;20191;-68
2023/04/22 00:35:47;;;;;;;3.60;2.22;;;9.70;90.60;;;;;;5136043;27;20180;-68
2023/04/22 00:38:18;;;;;;;3.60;2.55;;;9.50;90.80;;;;;;5136340;27;20278;-67
2023/04/22 00:40:46;;;;;;;4.22;3.25;;;9.50;91.20;;;;;;5135294;27;20188;-67
2023/04/22 00:43:16;;;;;;;3.58;2.70;;;9.50;91.30;;;;;;5136230;27;20631;-67
2023/04/22 00:45:46;;;;;;;4.35;3.00;;;9.50;91.20;;;;;;5117954;27;20230;-67
2023/04/22 00:48:14;;;;;;;8.95;4.30;;;9.50;91.20;;;;;;5136376;27;20218;-67
2023/04/22 00:50:41;;;;;;;5.47;4.20;;;9.40;91.30;;;;;;5135229;27;20813;-67
2023/04/22 00:53:14;;;;;;;4.47;3.60;;;9.40;91.80;;;;;;5136049;27;20712;-68
2023/04/22 00:55:41;;;;;;;3.60;2.90;;;9.40;92.00;;;;;;5135963;27;20311;-67
2023/04/22 00:58:09;;;;;;;3.40;2.30;;;9.40;92.00;;;;;;5135395;27;20263;-68
2023/04/22 01:00:37;;;;;;;7.75;2.97;;;9.40;92.20;;;;;;5135560;27;20198;-67
2023/04/22 01:03:08;;;;;;;3.90;2.50;;;9.40;92.40;;;;;;5135901;27;20282;-67
2023/04/22 01:05:35;;;;;;;3.60;2.25;;;9.40;92.50;;;;;;5134840;27;20646;-67
2023/04/22 01:08:02;;;;;;;9.20;7.65;;;9.30;92.70;;;;;;5135592;27;20195;-68
2023/04/22 01:10:30;;;;;;;7.68;6.60;;;9.30;92.90;;;;;;5134902;27;20227;-68
2023/04/22 01:12:57;;;;;;;5.38;3.40;;;9.30;93.10;;;;;;5113732;28;20216;-67
2023/04/22 01:15:24;;;;;;;5.03;3.35;;;9.30;93.10;;;;;;5114980;28;20307;-68
2023/04/22 01:17:53;;;;;;;6.45;2.95;;;9.30;92.80;;;;;;5114891;28;20241;-68
2023/04/22 01:20:22;;;;;;;4.43;3.15;;;9.30;92.90;;;;;;5115129;28;20188;-68
2023/04/22 01:22:53;;;;;;;6.07;3.00;;;9.30;93.00;;;;;;5133990;27;20188;-68
2023/04/22 01:25:22;;;;;;;5.13;2.85;;;9.30;92.80;;;;;;5135171;27;20712;-68
2023/04/22 01:27:50;;;;;;;4.00;3.03;;;9.30;93.00;;;;;;5135414;27;20191;-67
2023/04/22 01:30:19;;;;;;;4.55;3.33;;;9.30;93.20;;;;;;5135544;27;20223;-67
2023/04/22 01:32:49;;;;;;;4.97;3.67;;;9.30;93.50;;;;;;5134207;27;20268;-67
2023/04/22 01:35:16;;;;;;;3.70;2.58;;;9.30;93.80;;;;;;5135236;27;20282;-67
2023/04/22 01:37:43;;;;;;;3.53;2.95;;;9.30;93.60;;;;;;5135265;27;20244;-68
2023/04/22 01:40:12;;;;;;;8.82;3.10;;;9.20;92.90;;;;;;5135165;27;20188;-67
2023/04/22 01:42:40;;;;;;;4.05;2.65;;;9.10;92.80;;;;;;5134693;27;20191;-67
2023/04/22 01:45:08;;;;;;;4.82;3.00;;;9.10;93.00;;;;;;5134379;27;20276;-67
2023/04/22 01:47:38;;;;;;;3.58;2.90;;;9.10;93.30;;;;;;5133936;27;20188;-67
2023/04/22 01:50:09;;;;;;;4.13;3.47;;;9.00;93.30;;;;;;5133855;27;20211;-67
2023/04/22 01:52:37;;;;;;;5.45;3.15;;;9.00;93.50;;;;;;5135314;27;20302;-67
2023/04/22 01:55:13;;;;;;;6.60;3.28;;;9.00;93.50;;;;;;5135121;27;20283;-67
2023/04/22 01:57:41;;;;;;;5.05;3.70;;;8.90;93.50;;;;;;5134531;27;20185;-67
2023/04/22 02:00:14;;;;;;;5.63;4.13;;;8.90;93.60;;;;;;5134103;27;20591;-68
2023/04/22 02:02:41;;;;;;;4.53;2.88;;;8.90;93.50;;;;;;5134710;27;20310;-67
2023/04/22 02:05:09;;;;;;;5.15;3.75;;;8.90;93.60;;;;;;5133958;27;20710;-67
2023/04/22 02:07:40;;;;;;;5.45;3.00;;;8.80;93.90;;;;;;5134702;27;20227;-67
2023/04/22 02:10:12;;;;;;;4.30;3.10;;;8.90;94.30;;;;;;5134473;27;20684;-67
2023/04/22 02:12:40;;;;;;;4.80;3.20;;;8.80;94.50;;;;;;5134638;27;20244;-68
2023/04/22 02:15:16;;;;;;;3.55;2.47;;;8.80;95.10;;;;;;5134396;27;20216;-68
2023/04/22 02:17:45;;;;;;;2.85;1.90;;;8.90;94.80;;;;;;5134610;27;20214;-68
2023/04/22 02:20:13;;;;;;;2.92;2.13;;;8.80;94.80;;;;;;5133596;27;20614;-67
2023/04/22 02:22:42;;;;;;;5.85;2.92;;;8.70;94.90;;;;;;5134382;27;20188;-67
2023/04/22 02:25:11;;;;;;;6.85;2.50;;;8.80;94.90;;;;;;5132393;27;20191;-67
2023/04/22 02:27:38;;;;;;;3.42;2.25;;;8.80;94.90;;;;;;5134443;27;20187;-67
2023/04/22 02:30:08;;;;;;;4.13;2.65;;;8.70;95.00;;;;;;5133319;27;20187;-67
2023/04/22 02:32:37;;;;;;;3.67;2.60;;;8.70;95.10;;;;;;5133543;27;20213;-67
2023/04/22 02:35:08;;;;;;;3.85;2.80;;;8.70;95.00;;;;;;5133380;27;20589;-67
2023/04/22 02:37:35;;;;;;;3.85;2.58;;;8.70;94.90;;;;;;5134058;27;20242;-67
2023/04/22 02:40:02;;;;;;;5.45;3.63;;;8.60;94.60;;;;;;5133968;27;20282;-67
2023/04/22 02:42:29;;;;;;;6.43;3.47;;;8.60;94.50;;;;;;5133092;27;20632;-67
2023/04/22 02:44:58;;;;;;;4.97;3.15;;;8.60;94.60;;;;;;5133966;27;20222;-67
2023/04/22 02:47:27;;;;;;;5.97;3.08;;;8.60;94.70;;;;;;5133138;27;20212;-68
2023/04/22 02:49:54;;;;;;;6.10;2.90;;;8.60;94.80;;;;;;5133585;27;20227;-68
2023/04/22 02:52:29;;;;;;;4.38;2.78;;;8.60;94.80;;;;;;5133758;27;20298;-67
2023/04/22 02:55:06;;;;;;;4.47;2.67;;;8.60;94.90;;;;;;5133567;27;20279;-68
2023/04/22 02:57:33;;;;;;;3.40;2.42;;;8.50;94.90;;;;;;5132941;27;20187;-68
2023/04/22 03:00:06;;;;;;;4.20;2.63;;;8.50;94.60;;;;;;5133680;27;20195;-67
2023/04/22 03:02:37;;;;;;;2.92;2.28;;;8.40;94.20;;;;;;5133500;27;20206;-67
2023/04/22 03:05:08;;;;;;;4.35;2.50;;;8.30;93.70;;;;;;5134918;28;20589;-67
2023/04/22 03:07:36;;;;;;;3.70;2.60;;;8.30;93.70;;;;;;5133976;28;20190;-67
2023/04/22 03:10:06;;;;;;;3.40;2.20;;;8.20;93.60;;;;;;5133320;27;20191;-67
2023/04/22 03:12:33;;;;;;;4.15;2.50;;;8.20;93.70;;;;;;5137465;27;20265;-67
2023/04/22 03:15:01;;;;;;;3.50;2.30;;;8.10;93.60;;;;;;5137054;27;20243;-68
2023/04/22 03:17:28;;;;;;;2.70;1.80;;;8.00;93.40;;;;;;5138010;27;20192;-68
2023/04/22 03:19:56;;;;;;;4.47;2.55;;;7.90;93.50;;;;;;5137488;27;20312;-68
2023/04/22 03:22:24;;;;;;;3.47;2.88;;;7.80;93.80;;;;;;5124822;27;20263;-67
2023/04/22 03:24:52;;;;;;;4.35;3.35;;;7.70;94.00;;;;;;5137737;27;20187;-67
2023/04/22 03:27:19;;;;;;;3.58;2.92;;;7.70;94.30;;;;;;5137822;27;20656;-68
2023/04/22 03:29:46;;;;;;;4.10;2.95;;;7.60;94.80;;;;;;5137393;27;20228;-68
2023/04/22 03:32:15;;;;;;;4.93;3.20;;;7.60;94.90;;;;;;5122160;27;20264;-68
2023/04/22 03:34:44;;;;;;;3.58;2.17;;;7.60;94.80;;;;;;5137760;27;20188;-67
2023/04/22 03:37:16;;;;;;;4.80;2.50;;;7.50;94.20;;;;;;5137731;27;20191;-67
2023/04/22 03:39:44;;;;;;;4.35;2.50;;;7.50;94.00;;;;;;5137650;27;20195;-67
2023/04/22 03:42:14;;;;;;;3.20;2.53;;;7.50;94.00;;;;;;5137803;27;20207;-67
2023/04/22 03:44:43;;;;;;;4.20;3.22;;;7.40;94.30;;;;;;5134214;27;20219;-67
2023/04/22 03:47:16;;;;;;;5.32;2.90;;;7.40;95.00;;;;;;5137368;27;20215;-67
2023/04/22 03:49:46;;;;;;;4.30;3.10;;;7.30;95.20;;;;;;5137406;27;20223;-67
2023/04/22 03:52:15;;;;;;;5.65;2.45;;;7.30;95.20;;;;;;5136618;27;20218;-67
2023/04/22 03:54:42;;;;;;;4.10;2.88;;;7.30;95.20;;;;;;5137363;27;20539;-67
2023/04/22 03:57:12;;;;;;;5.95;3.05;;;7.20;94.70;;;;;;5137159;27;20234;-67
2023/04/22 03:59:40;;;;;;;3.28;2.47;;;7.20;94.40;;;;;;5136468;27;20222;-67
2023/04/22 04:02:09;;;;;;;5.28;3.25;;;7.10;94.80;;;;;;5137101;27;20188;-67
2023/04/22 04:04:41;;;;;;;2.80;2.28;;;7.10;94.90;;;;;;5136422;27;20722;-67
2023/04/22 04:07:09;;;;;;;4.95;2.50;;;7.10;94.90;;;;;;5137218;27;20219;-67
2023/04/22 04:09:37;;;;;;;12.25;8.25;;;7.10;94.90;;;;;;5136884;27;20195;-67
2023/04/22 04:12:11;;;;;;;4.93;3.67;;;7.10;94.60;;;;;;5137401;27;20268;-67
2023/04/22 04:14:43;;;;;;;5.13;3.20;;;7.10;94.90;;;;;;5137130;27;20729;-67
2023/04/22 04:17:16;;;;;;;3.50;1.80;;;7.10;94.70;;;;;;5136988;27;20231;-67
2023/04/22 04:19:48;;;;;;;3.42;2.53;;;7.10;94.40;;;;;;5136400;27;20188;-67
2023/04/22 04:22:15;;;;;;;3.58;2.90;;;7.10;94.30;;;;;;5135991;27;20218;-68
2023/04/22 04:24:44;;;;;;;5.18;3.58;;;7.10;94.30;;;;;;5136911;27;20666;-68
2023/04/22 04:27:12;;;;;;;6.22;4.20;;;7.10;94.10;;;;;;5137014;27;20187;-67
2023/04/22 04:29:42;;;;;;;5.97;4.20;;;7.00;94.70;;;;;;5136708;27;20191;-67
2023/04/22 04:32:14;;;;;;;5.13;3.60;;;7.00;94.80;;;;;;5136553;27;20219;-68
2023/04/22 04:34:41;;;;;;;4.22;2.85;;;7.00;94.90;;;;;;5135787;27;20586;-67
2023/04/22 04:37:09;;;;;;;5.18;3.60;;;7.10;95.00;;;;;;5136277;27;20191;-67
2023/04/22 04:39:37;;;;;;;8.85;4.97;;;7.10;95.00;;;;;;5136312;27;20226;-68
2023/04/22 04:42:06;;;;;;;5.47;4.15;;;7.20;95.40;;;;;;5135210;27;20188;-67
2023/04/22 04:44:34;;;;;;;5.40;4.18;;;7.20;95.60;;;;;;5135706;27;20217;-68
2023/04/22 04:47:00;;;;;;;3.97;2.33;;;7.20;95.80;;;;;;5135411;27;20252;-67
2023/04/22 04:49:30;;;;;;;3.47;2.75;;;7.30;96.00;;;;;;5135931;27;20196;-68
2023/04/22 04:51:58;;;;;;;3.92;1.88;;;7.30;96.00;;;;;;5135188;27;20195;-67
2023/04/22 04:54:25;;;;;;;5.20;2.70;;;7.40;95.80;;;;;;5135637;27;20192;-68
2023/04/22 04:56:52;;;;;;;7.50;3.20;;;7.40;95.60;;;;;;5135611;27;20238;-68
2023/04/22 04:59:21;;;;;;;6.43;3.45;;;7.50;95.50;;;;;;5136318;27;20191;-68
2023/04/22 05:01:48;;;;;;;5.25;3.95;;;7.50;95.20;;;;;;5135799;27;20245;-68
2023/04/22 05:04:15;;;;;;;3.47;2.53;;;7.60;95.00;;;;;;5135945;27;20278;-68
2023/04/22 05:06:47;;;;;;;4.70;3.10;;;7.70;94.90;;;;;;5135847;27;20211;-68
2023/04/22 05:09:19;;;;;;;3.60;2.65;;;7.80;94.90;;;;;;5136127;27;20220;-68
2023/04/22 05:11:48;;;;;;;6.38;4.55;;;7.90;95.00;;;;;;5135508;27;20575;-68
2023/04/22 05:14:22;;;;;;;12.95;7.28;;;8.00;95.30;;;;;;5135823;27;20258;-68
2023/04/22 05:16:53;;;;;;;5.63;3.70;;;8.10;95.30;;;;;;5135581;27;20693;-68
2023/04/22 05:19:25;;;;;;;4.13;2.97;;;8.30;95.30;;;;;;5136148;27;20184;-68
2023/04/22 05:21:57;;;;;;;5.00;3.97;;;8.40;95.50;;;;;;5132998;27;20180;-68
2023/04/22 05:24:26;;;;;;;6.47;3.70;;;8.50;95.80;;;;;;5134895;27;20724;-68
2023/04/22 05:26:53;;;;;;;4.55;3.30;;;8.70;95.40;;;;;;5135181;27;20212;-68
2023/04/22 05:29:22;;;;;;;4.90;4.22;;;8.80;95.00;;;;;;5135267;27;20199;-68
2023/04/22 05:31:51;;;;;;;4.53;3.33;;;8.90;94.80;;;;;;5135005;27;20240;-68
2023/04/22 05:34:25;;;;;;;4.50;3.35;;;9.10;94.70;;;;;;5134047;27;20247;-68
2023/04/22 05:36:57;;;;;;;5.00;3.20;;;9.20;94.50;;;;;;5133988;27;20195;-68
2023/04/22 05:39:27;;;;;;;5.47;3.47;;;9.40;94.70;;;;;;5134143;27;20267;-68
2023/04/22 05:42:20;;;;;;;4.78;3.15;;;9.60;94.80;;;;;;5135189;27;20187;-68
2023/04/22 05:45:01;;;;;;;6.38;3.53;;;9.70;94.70;;;;;;5134738;27;20199;-67
2023/04/22 05:47:29;;;;;;;5.00;3.30;;;9.90;94.10;;;;;;5133830;27;20618;-68
2023/04/22 05:50:01;;;;;;;4.38;3.13;;;10.10;93.30;;;;;;5135111;27;20286;-68
2023/04/22 05:52:28;;;;;;;4.70;3.03;;;10.30;93.20;;;;;;5134768;27;20257;-68
2023/04/22 05:55:00;;;;;;;4.25;3.22;;;10.50;92.80;;;;;;5131888;27;20184;-68
2023/04/22 05:57:29;;;;;;;4.70;3.17;;;10.60;92.00;;;;;;5131108;27;20552;-69
2023/04/22 06:00:00;;;;;;;4.68;2.75;;;10.80;92.10;;;;;;5130979;27;20221;-68
2023/04/22 06:02:27;;;;;;;4.20;2.92;;;10.90;91.60;;;;;;5131763;27;20191;-68
2023/04/22 06:04:55;;;;;;;7.40;2.95;;;11.00;91.50;;;;;;5131482;27;20236;-68
2023/04/22 06:07:22;;;;;;;3.70;2.60;;;11.20;91.40;;;;;;5113932;27;20195;-68
2023/04/22 06:09:49;;;;;;;3.97;3.15;;;11.30;91.40;;;;;;5119696;27;20181;-68
2023/04/22 06:12:17;;;;;;;4.72;3.35;;;11.40;91.30;;;;;;5113842;27;20234;-68
2023/04/22 06:14:46;;;;;;;3.10;2.65;;;11.50;91.20;;;;;;5113890;27;20219;-68
2023/04/22 06:17:14;;;;;;;3.15;2.30;;;11.60;91.20;;;;;;5076685;28;20656;-68
2023/04/22 06:19:58;;;;;;;3.70;2.75;;;11.70;90.70;;;;;;5072994;28;20285;-69
2023/04/22 06:22:28;;;;;;;4.95;3.35;;;11.80;90.30;;;;;;5087277;28;20693;-68
2023/04/22 06:24:57;;;;;;;4.53;2.77;;;11.90;90.40;;;;;;5088702;28;20173;-68
2023/04/22 06:27:34;;;;;;;3.10;2.30;;;12.00;90.60;;;;;;5090421;28;20775;-68
2023/04/22 06:30:05;;;;;;;5.73;3.03;;;12.20;91.00;;;;;;5073119;28;20696;-69
2023/04/22 06:32:38;;;;;;;5.40;3.40;;;12.30;90.60;;;;;;5072631;28;20501;-68
2023/04/22 06:35:11;;;;;;;4.47;3.53;;;12.50;89.20;;;;;;5078940;28;20230;-68
2023/04/22 06:37:38;;;;;;;3.20;2.50;;;12.50;88.30;;;;;;5090495;28;20185;-68
2023/04/22 06:40:06;;;;;;;4.90;3.27;;;12.60;88.30;;;;;;5090239;28;20925;-69
2023/04/22 06:42:34;;;;;;;4.07;3.33;;;12.60;88.10;;;;;;5090009;28;20439;-69
2023/04/22 06:45:01;;;;;;;3.80;2.87;;;12.70;88.60;;;;;;5090368;28;20449;-68
2023/04/22 06:47:28;;;;;;;3.67;2.77;;;12.80;89.20;;;;;;5090353;28;20497;-68
2023/04/22 06:49:57;;;;;;;3.80;2.60;;;12.90;89.90;;;;;;5088190;28;20451;-68
2023/04/22 06:52:24;;;;;;;3.63;2.83;;;12.90;89.90;;;;;;5089881;28;20446;-68
2023/04/22 06:54:51;;;;;;;3.50;2.50;;;13.10;88.70;;;;;;5090395;28;20964;-68
2023/04/22 06:57:18;;;;;;;3.33;2.17;;;13.20;88.10;;;;;;5089951;28;20526;-68
2023/04/22 06:59:45;;;;;;;3.70;2.37;;;13.30;87.80;;;;;;5089593;28;20522;-68
2023/04/22 07:02:13;;;;;;;3.00;2.03;;;13.50;87.70;;;;;;5089731;28;20471;-68
2023/04/22 07:04:40;;;;;;;2.83;2.13;;;13.60;87.30;;;;;;5083472;28;20457;-68
2023/04/22 07:07:08;;;;;;;4.83;2.40;;;13.80;86.60;;;;;;5083526;28;20954;-68
2023/04/22 07:09:35;;;;;;;4.23;2.37;;;14.00;85.60;;;;;;5074853;28;20428;-69
2023/04/22 07:12:05;;;;;;;4.40;2.27;;;14.10;85.00;;;;;;5074869;28;20519;-68
2023/04/22 07:14:33;;;;;;;3.43;2.67;;;14.30;85.00;;;;;;5071614;28;20480;-68
2023/04/22 07:17:01;;;;;;;3.33;1.90;;;14.50;85.10;;;;;;5113780;28;20467;-69
2023/04/22 07:19:28;;;;;;;2.43;1.60;;;14.80;85.30;;;;;;5118142;28;20912;-68
2023/04/22 07:22:02;;;;;;;2.97;1.77;;;14.90;82.30;;;;;;5125184;28;20911;-68
2023/04/22 07:24:36;;;;;;;2.57;1.73;;;15.20;80.30;;;;;;5125510;28;20453;-68
2023/04/22 07:27:08;;;;;;;4.27;1.93;;;15.40;78.40;;;;;;5126525;28;20441;-68
2023/04/22 07:29:40;;;;;;;3.30;2.07;;;15.60;77.10;;;;;;5122634;28;20469;-68
2023/04/22 07:32:08;;;;;;;2.60;1.77;;;15.80;74.50;;;;;;5121639;28;20842;-68
2023/04/22 07:34:43;;;;;;;4.43;1.80;;;16.10;74.50;;;;;;5119546;28;20575;-68
2023/04/22 07:37:12;;;;;;;2.60;1.40;;;16.40;74.10;;;;;;5125100;28;20472;-68
2023/04/22 07:39:50;;;;;;;2.77;1.80;;;16.80;73.20;;;;;;5121135;28;20461;-69
2023/04/22 07:42:22;;;;;;;3.30;1.83;;;17.10;68.90;;;;;;5119748;28;20518;-69
2023/04/22 07:44:56;;;;;;;2.50;1.60;;;17.50;67.80;;;;;;5118670;28;20793;-69
2023/04/22 07:47:35;;;;;;;2.40;1.33;;;17.80;62.90;;;;;;5120664;28;20544;-69
2023/04/22 07:50:13;;;;;;;3.57;1.47;;;18.10;59.40;;;;;;5114994;28;20494;-68
2023/04/22 07:52:45;;;;;;;2.20;1.20;;;18.50;61.30;;;;;;5120490;28;20874;-69
2023/04/22 07:55:14;;;;;;;2.20;1.30;;;18.90;57.00;;;;;;5117783;28;20441;-68
2023/04/22 07:57:50;;;;;;;3.47;1.20;;;19.30;55.40;;;;;;5118776;27;20443;-69
2023/04/22 08:00:18;;;;;;;2.90;1.50;;;19.70;53.00;;;;;;5121457;27;20463;-69
2023/04/22 08:02:58;;;;;;;2.23;1.00;;;20.00;51.80;;;;;;5125743;27;20444;-69
2023/04/22 08:05:32;;;;;;;2.00;0.90;;;20.30;49.70;;;;;;5120167;27;20445;-69
2023/04/22 08:08:06;;;;;;;2.10;1.10;;;20.50;48.40;;;;;;5123488;27;20450;-70
2023/04/22 08:10:35;;;;;;;2.10;1.17;;;20.80;48.90;;;;;;5121897;27;20452;-69
2023/04/22 08:13:07;;;;;;;3.27;1.10;;;21.20;45.60;;;;;;5124012;27;20460;-69
2023/04/22 08:15:39;;;;;;;2.50;1.10;;;21.40;46.00;;;;;;5126421;27;20473;-69
2023/04/22 08:18:24;;;;;;;2.60;1.40;;;21.80;45.70;;;;;;5121438;27;20456;-69
2023/04/22 08:20:54;;;;;;;2.77;1.23;;;22.10;46.40;;;;;;5124100;27;20430;-69
2023/04/22 08:23:26;;;;;;;2.40;1.10;;;22.30;44.40;;;;;;5127845;27;20449;-69
2023/04/22 08:25:55;;;;;;;3.43;1.20;;;22.60;42.80;;;;;;5122499;27;20437;-69
2023/04/22 08:28:27;;;;;;;2.13;1.00;;;22.70;43.70;;;;;;5118665;27;20438;-69
2023/04/22 08:31:13;;;;;;;4.47;1.03;;;22.80;41.50;;;;;;5125559;27;20474;-69
2023/04/22 08:33:42;;;;;;;2.20;0.80;;;22.90;40.80;;;;;;5122133;27;20527;-69
2023/04/22 08:36:21;;;;;;;2.50;1.20;;;23.10;39.10;;;;;;5121520;27;20766;-69
2023/04/22 08:38:54;;;;;;;1.90;1.00;;;23.20;39.60;;;;;;5123930;27;20446;-69
2023/04/22 08:41:30;;;;;;;2.37;1.10;;;23.30;38.60;;;;;;5121709;27;20866;-69
2023/04/22 08:44:05;;;;;;;3.00;1.30;;;23.40;39.20;;;;;;5125769;27;20445;-69
2023/04/22 08:46:45;;;;;;;2.20;1.13;;;23.60;39.60;;;;;;5127153;27;20437;-69
2023/04/22 08:49:17;;;;;;;2.67;1.43;;;23.80;39.50;;;;;;5125026;27;20468;-69
2023/04/22 08:51:54;;;;;;;2.20;1.17;;;24.10;38.40;;;;;;5123943;27;20444;-69
2023/04/22 08:54:26;;;;;;;2.20;0.93;;;24.20;37.10;;;;;;5124067;27;20828;-70
2023/04/22 08:56:59;;;;;;;2.10;1.00;;;24.40;37.00;;;;;;5117913;27;20487;-69
2023/04/22 08:59:30;;;;;;;2.10;0.97;;;24.50;37.60;;;;;;5123583;27;20449;-69
2023/04/22 09:02:04;;;;;;;3.00;1.10;;;24.80;38.30;;;;;;5122761;27;20437;-69
2023/04/22 09:04:53;;;;;;;2.33;1.20;;;25.10;36.70;;;;;;5121787;27;20442;-69
2023/04/22 09:07:29;;;;;;;2.93;1.33;;;25.30;36.00;;;;;;5117202;27;20477;-69
2023/04/22 09:10:10;;;;;;;1.93;0.87;;;25.50;34.80;;;;;;5121880;27;20433;-69
2023/04/22 09:12:50;;;;;;;1.90;1.03;;;25.70;34.50;;;;;;5121425;27;20454;-72
2023/04/22 09:15:26;;;;;;;2.00;0.97;;;25.80;32.90;;;;;;5119177;27;20493;-69
2023/04/22 09:18:04;;;;;;;2.43;1.10;;;25.80;31.10;;;;;;5124204;27;20803;-69
2023/04/22 09:20:45;;;;;;;2.37;1.10;;;25.90;32.90;;;;;;5125626;27;20509;-69
2023/04/22 09:23:13;;;;;;;2.50;1.30;;;25.90;33.20;;;;;;5121267;27;20438;-69
2023/04/22 09:25:45;;;;;;;3.20;1.60;;;26.00;34.70;;;;;;5124183;27;20529;-69
2023/04/22 09:28:27;;;;;;;2.23;0.97;;;26.00;34.50;;;;;;5125714;27;20446;-69
2023/04/22 09:31:11;;;;;;;2.33;1.03;;;26.00;34.60;;;;;;5118499;27;20449;-69
2023/04/22 09:33:40;;;;;;;2.40;1.30;;;26.20;34.90;;;;;;5122679;27;20478;-70
2023/04/22 09:36:13;;;;;;;2.33;1.17;;;26.30;34.60;;;;;;5124841;27;20441;-69
2023/04/22 09:38:55;;;;;;;2.93;1.30;;;26.40;33.80;;;;;;5123032;27;20781;-69
2023/04/22 09:41:32;;;;;;;2.00;0.90;;;26.50;34.50;;;;;;5117594;27;20436;-69
2023/04/22 09:44:18;;;;;;;2.40;1.30;;;26.70;36.40;;;;;;5114697;27;20957;-69
2023/04/22 09:46:50;;;;;;;2.63;1.03;;;26.90;34.90;;;;;;5114576;27;20925;-69
2023/04/22 09:49:37;;;;;;;3.23;1.20;;;27.10;34.40;;;;;;5131031;27;20436;-69
2023/04/22 09:52:14;;;;;;;3.63;1.30;;;27.20;31.90;;;;;;5131062;27;20441;-69
2023/04/22 09:54:50;;;;;;;2.17;1.30;;;27.40;30.00;;;;;;5130650;27;20473;-69
2023/04/22 09:57:22;;;;;;;2.20;1.10;;;27.30;29.40;;;;;;5130469;27;20520;-69
2023/04/22 09:59:52;;;;;;;2.00;1.10;;;27.30;28.70;;;;;;5116565;27;20472;-69
2023/04/22 10:02:28;;;;;;;2.40;1.17;;;27.40;30.40;;;;;;5113710;27;20432;-69
2023/04/22 10:05:00;;;;;;;3.17;1.07;;;27.50;30.00;;;;;;5117514;27;20970;-69
2023/04/22 10:07:31;;;;;;;1.80;0.80;;;27.40;26.90;;;;;;5133398;27;20437;-69
2023/04/22 10:10:01;;;;;;;2.33;1.00;;;27.40;24.50;;;;;;5134795;27;20437;-69
2023/04/22 10:12:30;;;;;;;2.77;0.90;;;27.50;23.80;;;;;;5134468;27;20441;-69
2023/04/22 10:14:58;;;;;;;1.90;0.90;;;27.60;24.90;;;;;;5133947;27;20516;-69
2023/04/22 10:17:26;;;;;;;3.63;0.87;;;27.60;24.30;;;;;;5134658;27;20441;-69
2023/04/22 10:19:55;;;;;;;2.70;0.87;;;27.70;25.80;;;;;;5134027;27;20441;-69
2023/04/22 10:22:27;;;;;;;2.30;0.90;;;27.80;27.10;;;;;;5134136;27;20437;-69
2023/04/22 10:24:56;;;;;;;3.30;1.30;;;27.80;25.10;;;;;;5134322;27;20437;-69
2023/04/22 10:27:23;;;;;;;3.50;1.13;;;27.70;27.10;;;;;;5134397;27;20778;-69
2023/04/22 10:29:56;;;;;;;2.23;1.03;;;27.70;26.30;;;;;;5134474;27;20437;-69
2023/04/22 10:32:27;;;;;;;2.00;0.90;;;27.80;25.50;;;;;;5134353;27;20464;-69
2023/04/22 10:35:11;;;;;;;1.93;0.87;;;27.80;25.00;;;;;;5134209;27;20816;-69
2023/04/22 10:37:47;;;;;;;2.80;1.20;;;27.80;25.70;;;;;;5132237;27;20449;-70
2023/04/22 10:40:16;;;;;;;2.60;0.97;;;27.80;25.20;;;;;;5134100;27;20437;-70
2023/04/22 10:42:50;;;;;;;10.30;8.33;;;27.90;25.20;;;;;;5134445;27;20497;-69
2023/04/22 10:45:17;;;;;;;7.37;6.60;;;27.80;22.80;;;;;;5134205;27;20778;-69
2023/04/22 10:47:46;;;;;;;3.23;1.67;;;27.90;24.50;;;;;;5133762;27;20953;-69
2023/04/22 10:50:26;;;;;;;2.20;1.30;;;28.00;26.90;;;;;;5133897;27;20445;-69
2023/04/22 10:52:58;;;;;;;1.90;0.90;;;28.20;27.30;;;;;;5133988;27;20448;-69
2023/04/22 10:55:56;;;;;;;1.97;1.00;;;28.20;26.60;;;;;;5133519;27;20998;-69
2023/04/22 10:58:24;;;;;;;2.20;1.00;;;28.30;26.50;;;;;;5133556;27;20464;-70
2023/04/22 11:00:58;;;;;;;2.20;0.80;;;28.40;26.60;;;;;;5133792;27;20437;-70
2023/04/22 11:03:28;;;;;;;2.10;1.00;;;28.50;26.80;;;;;;5133737;27;20434;-69
2023/04/22 11:06:13;;;;;;;2.83;1.03;;;28.50;25.00;;;;;;5133830;27;20438;-69
2023/04/22 11:08:47;;;;;;;2.20;0.90;;;28.50;25.50;;;;;;5132512;27;20513;-69
2023/04/22 11:11:18;;;;;;;1.80;0.87;;;28.50;24.70;;;;;;5133767;28;20468;-70
2023/04/22 11:13:50;;;;;;;2.00;0.90;;;28.50;24.80;;;;;;5133546;28;20464;-69
2023/04/22 11:16:21;;;;;;;2.10;1.00;;;28.40;25.40;;;;;;5133513;28;20812;-70
2023/04/22 11:18:50;;;;;;;2.00;1.03;;;28.40;25.60;;;;;;5133964;28;20490;-69
2023/04/22 11:21:18;;;;;;;2.43;1.20;;;28.30;24.80;;;;;;5133575;28;20445;-69
2023/04/22 11:24:04;;;;;;;3.87;1.07;;;28.30;26.00;;;;;;5133558;28;20441;-70
2023/04/22 11:26:40;;;;;;;2.63;1.40;;;28.40;24.90;;;;;;5133617;28;20839;-69
2023/04/22 11:29:08;;;;;;;2.47;1.20;;;28.60;25.20;;;;;;5133382;28;20927;-69
2023/04/22 11:31:36;;;;;;;2.27;1.10;;;28.80;24.80;;;;;;5134364;27;20846;-69
2023/04/22 11:34:04;;;;;;;2.07;0.90;;;28.90;23.00;;;;;;5137713;27;20434;-69
2023/04/22 11:36:36;;;;;;;2.07;0.90;;;29.00;24.10;;;;;;5137784;27;20461;-69
2023/04/22 11:39:10;;;;;;;3.77;1.43;;;29.00;24.50;;;;;;5137429;27;20792;-70
2023/04/22 11:41:41;;;;;;;3.17;0.97;;;29.10;23.10;;;;;;5137848;27;20433;-69
2023/04/22 11:44:13;;;;;;;1.93;1.00;;;29.10;22.00;;;;;;5137670;27;20938;-69
2023/04/22 11:46:45;;;;;;;3.73;1.33;;;29.10;20.90;;;;;;5137859;27;20911;-69
2023/04/22 11:49:22;;;;;;;6.30;1.07;;;29.20;18.90;;;;;;5137481;27;20468;-69
2023/04/22 11:51:56;;;;;;;2.67;1.10;;;29.40;21.40;;;;;;5137500;27;20907;-69
2023/04/22 11:54:31;;;;;;;3.50;1.03;;;29.40;22.00;;;;;;5137146;27;20471;-70
2023/04/22 11:57:14;;;;;;;3.70;1.40;;;29.50;22.50;;;;;;5137514;27;20540;-69
2023/04/22 11:59:41;;;;;;;2.70;1.13;;;29.50;24.10;;;;;;5137334;27;20437;-69
2023/04/22 12:02:12;;;;;;;2.47;1.17;;;29.60;23.80;;;;;;5137158;27;20539;-69
2023/04/22 12:04:44;;;;;;;3.30;1.47;;;29.80;24.60;;;;;;5137483;27;20772;-69
2023/04/22 12:07:16;;;;;;;4.17;1.40;;;30.00;24.00;;;;;;5137057;27;20519;-69
2023/04/22 12:09:45;;;;;;;2.30;1.00;;;30.20;22.20;;;;;;5136971;27;20459;-69
2023/04/22 12:12:12;;;;;;;2.63;1.00;;;30.30;20.80;;;;;;5137139;27;20497;-69
2023/04/22 12:14:39;;;;;;;3.13;1.40;;;30.40;20.80;;;;;;5136651;27;20472;-69
2023/04/22 12:17:11;;;;;;;5.17;1.33;;;30.50;20.00;;;;;;5136656;27;20970;-69
2023/04/22 12:19:48;;;;;;;2.60;1.10;;;30.40;19.20;;;;;;5136841;27;20472;-69
2023/04/22 12:22:25;;;;;;;2.63;1.20;;;30.50;20.00;;;;;;5136742;27;20489;-69
2023/04/22 12:24:52;;;;;;;2.60;1.23;;;30.50;20.20;;;;;;5136816;27;20437;-69
2023/04/22 12:27:26;;;;;;;2.97;1.30;;;30.40;19.50;;;;;;5136879;27;20433;-69
2023/04/22 12:29:55;;;;;;;3.27;1.20;;;30.40;18.80;;;;;;5136854;27;20429;-69
2023/04/22 12:32:26;;;;;;;5.37;1.20;;;30.30;18.70;;;;;;5136822;27;20441;-69
2023/04/22 12:34:56;;;;;;;3.30;1.10;;;30.20;18.40;;;;;;5136469;27;21044;-69
2023/04/22 12:37:25;;;;;;;2.10;1.10;;;30.00;19.40;;;;;;5136406;27;20433;-70
2023/04/22 12:39:56;;;;;;;3.20;1.07;;;29.90;18.90;;;;;;5136229;27;20512;-69
2023/04/22 12:42:23;;;;;;;2.60;1.13;;;29.70;18.60;;;;;;5136103;27;20433;-69
2023/04/22 12:44:50;;;;;;;2.03;0.90;;;29.60;18.90;;;;;;5136645;27;20433;-70
2023/04/22 12:47:19;;;;;;;1.93;1.07;;;29.60;19.50;;;;;;5136513;27;20434;-69
2023/04/22 12:49:46;;;;;;;2.80;1.20;;;29.60;20.30;;;;;;5136586;27;21011;-69
2023/04/22 12:52:14;;;;;;;2.17;1.13;;;29.60;21.00;;;;;;5136579;27;20425;-69
2023/04/22 12:54:42;;;;;;;2.10;0.93;;;29.60;22.50;;;;;;5136120;27;20987;-69
2023/04/22 12:57:09;;;;;;;2.10;1.07;;;29.60;21.80;;;;;;5136528;27;20494;-69
2023/04/22 12:59:38;;;;;;;3.27;1.20;;;29.50;22.40;;;;;;5135885;27;20437;-69
2023/04/22 13:02:10;;;;;;;2.47;1.50;;;29.30;20.80;;;;;;5136287;27;20459;-69
2023/04/22 13:04:41;;;;;;;3.27;1.00;;;29.20;21.50;;;;;;5136176;27;20434;-69
2023/04/22 13:07:10;;;;;;;2.53;1.03;;;29.00;21.90;;;;;;5135860;27;20492;-69
2023/04/22 13:09:38;;;;;;;3.80;1.00;;;28.90;20.40;;;;;;5135950;27;20433;-69